sensor_id;sensor_type;location;lat;lon;timestamp;pressure;altitude;pressure_sealevel;temperature;humidity
36798;BME280;22748;8.426;99.512;2022-09-02T00:00:49;100673.78;;;28.17;66.33
36798;BME280;22748;8.426;99.512;2022-09-02T00:03:20;100684.72;;;28.15;66.35
36798;BME280;22748;8.426;99.512;2022-09-02T00:05:54;100683.47;;;28.11;66.85
36798;BME280;22748;8.426;99.512;2022-09-02T00:08:30;100690.31;;;28.07;66.32
36798;BME280;22748;8.426;99.512;2022-09-02T00:11:03;100695.22;;;28.03;66.39
36798;BME280;22748;8.426;99.512;2022-09-02T00:13:41;100711.72;;;28.00;66.76
36798;BME280;22748;8.426;99.512;2022-09-02T00:16:16;100717.50;;;27.97;66.44
36798;BME280;22748;8.426;99.512;2022-09-02T00:18:48;100708.81;;;27.95;66.87
36798;BME280;22748;8.426;99.512;2022-09-02T00:21:23;100720.19;;;27.97;66.63
36798;BME280;22748;8.426;99.512;2022-09-02T00:23:58;100727.81;;;28.00;66.80
36798;BME280;22748;8.426;99.512;2022-09-02T00:26:30;100727.63;;;28.02;66.82
36798;BME280;22748;8.426;99.512;2022-09-02T00:29:02;100725.78;;;28.02;67.18
36798;BME280;22748;8.426;99.512;2022-09-02T00:31:39;100741.06;;;28.02;67.15
36798;BME280;22748;8.426;99.512;2022-09-02T00:34:10;100748.09;;;28.03;67.10
36798;BME280;22748;8.426;99.512;2022-09-02T00:36:41;100756.34;;;28.01;66.91
36798;BME280;22748;8.426;99.512;2022-09-02T00:39:11;100771.41;;;28.02;67.33
36798;BME280;22748;8.426;99.512;2022-09-02T00:41:45;100770.78;;;28.00;67.12
36798;BME280;22748;8.426;99.512;2022-09-02T00:44:17;100774.09;;;28.02;67.44
36798;BME280;22748;8.426;99.512;2022-09-02T00:46:55;100769.13;;;27.99;67.51
36798;BME280;22748;8.426;99.512;2022-09-02T00:49:29;100776.16;;;28.00;67.61
36798;BME280;22748;8.426;99.512;2022-09-02T00:52:06;100780.69;;;28.00;67.26
36798;BME280;22748;8.426;99.512;2022-09-02T00:54:42;100787.94;;;27.99;67.54
36798;BME280;22748;8.426;99.512;2022-09-02T00:57:23;100792.03;;;27.95;67.80
36798;BME280;22748;8.426;99.512;2022-09-02T01:02:35;100805.06;;;27.98;67.76
36798;BME280;22748;8.426;99.512;2022-09-02T01:05:09;100809.41;;;27.99;68.04
36798;BME280;22748;8.426;99.512;2022-09-02T01:07:39;100808.34;;;27.94;68.17
36798;BME280;22748;8.426;99.512;2022-09-02T01:10:16;100816.19;;;27.95;68.22
36798;BME280;22748;8.426;99.512;2022-09-02T01:12:54;100820.16;;;27.99;68.01
36798;BME280;22748;8.426;99.512;2022-09-02T01:15:29;100813.72;;;28.00;68.17
36798;BME280;22748;8.426;99.512;2022-09-02T01:18:01;100814.38;;;28.02;68.30
36798;BME280;22748;8.426;99.512;2022-09-02T01:20:33;100822.00;;;27.99;68.05
36798;BME280;22748;8.426;99.512;2022-09-02T01:23:06;100829.84;;;28.00;68.75
36798;BME280;22748;8.426;99.512;2022-09-02T01:25:37;100826.78;;;28.03;68.88
36798;BME280;22748;8.426;99.512;2022-09-02T01:28:09;100826.16;;;28.01;68.44
36798;BME280;22748;8.426;99.512;2022-09-02T01:30:44;100826.34;;;28.00;68.91
36798;BME280;22748;8.426;99.512;2022-09-02T01:33:15;100821.41;;;28.03;68.58
36798;BME280;22748;8.426;99.512;2022-09-02T01:35:48;100821.00;;;28.06;68.81
36798;BME280;22748;8.426;99.512;2022-09-02T01:38:21;100825.34;;;28.07;68.43
36798;BME280;22748;8.426;99.512;2022-09-02T01:40:51;100816.25;;;28.08;68.93
36798;BME280;22748;8.426;99.512;2022-09-02T01:43:23;100822.91;;;28.13;69.11
36798;BME280;22748;8.426;99.512;2022-09-02T01:45:57;100817.53;;;28.13;68.70
36798;BME280;22748;8.426;99.512;2022-09-02T01:48:30;100818.16;;;28.15;68.75
36798;BME280;22748;8.426;99.512;2022-09-02T01:51:02;100825.91;;;27.96;69.61
36798;BME280;22748;8.426;99.512;2022-09-02T01:53:37;100830.66;;;27.94;69.62
36798;BME280;22748;8.426;99.512;2022-09-02T01:56:08;100829.84;;;28.00;69.47
36798;BME280;22748;8.426;99.512;2022-09-02T01:58:39;100826.16;;;28.01;69.25
36798;BME280;22748;8.426;99.512;2022-09-02T02:01:09;100825.13;;;28.09;69.32
36798;BME280;22748;8.426;99.512;2022-09-02T02:03:42;100828.06;;;28.14;69.60
36798;BME280;22748;8.426;99.512;2022-09-02T02:06:17;100827.25;;;28.14;69.78
36798;BME280;22748;8.426;99.512;2022-09-02T02:08:51;100828.09;;;28.21;69.44
36798;BME280;22748;8.426;99.512;2022-09-02T02:11:26;100825.34;;;28.07;70.16
36798;BME280;22748;8.426;99.512;2022-09-02T02:13:56;100826.22;;;28.15;70.20
36798;BME280;22748;8.426;99.512;2022-09-02T02:16:26;100810.91;;;28.15;70.07
36798;BME280;22748;8.426;99.512;2022-09-02T02:18:58;100808.47;;;28.20;69.85
36798;BME280;22748;8.426;99.512;2022-09-02T02:21:34;100808.69;;;28.25;70.07
36798;BME280;22748;8.426;99.512;2022-09-02T02:24:07;100810.41;;;28.33;70.23
36798;BME280;22748;8.426;99.512;2022-09-02T02:26:37;100804.81;;;28.41;69.81
36798;BME280;22748;8.426;99.512;2022-09-02T02:29:12;100805.72;;;28.48;69.69
36798;BME280;22748;8.426;99.512;2022-09-02T02:31:44;100803.53;;;28.30;69.98
36798;BME280;22748;8.426;99.512;2022-09-02T02:34:15;100810.59;;;28.38;70.30
36798;BME280;22748;8.426;99.512;2022-09-02T02:36:46;100804.59;;;28.36;69.80
36798;BME280;22748;8.426;99.512;2022-09-02T02:39:18;100802.19;;;28.48;69.34
36798;BME280;22748;8.426;99.512;2022-09-02T02:41:48;100811.94;;;28.56;69.45
36798;BME280;22748;8.426;99.512;2022-09-02T02:44:21;100814.00;;;28.54;69.38
36798;BME280;22748;8.426;99.512;2022-09-02T02:46:53;100810.09;;;28.63;69.27
36798;BME280;22748;8.426;99.512;2022-09-02T02:49:26;100814.47;;;28.70;69.56
36798;BME280;22748;8.426;99.512;2022-09-02T02:51:56;100802.28;;;28.75;69.22
36798;BME280;22748;8.426;99.512;2022-09-02T02:54:30;100810.53;;;28.80;69.16
36798;BME280;22748;8.426;99.512;2022-09-02T02:57:00;100811.38;;;28.80;68.88
36798;BME280;22748;8.426;99.512;2022-09-02T02:59:34;100807.03;;;28.79;68.63
36798;BME280;22748;8.426;99.512;2022-09-02T03:02:07;100802.06;;;28.83;68.67
36798;BME280;22748;8.426;99.512;2022-09-02T03:04:38;100808.91;;;28.85;69.05
36798;BME280;22748;8.426;99.512;2022-09-02T03:07:09;100821.50;;;28.91;68.89
36798;BME280;22748;8.426;99.512;2022-09-02T03:09:40;100821.75;;;28.97;69.13
36798;BME280;22748;8.426;99.512;2022-09-02T03:12:13;100816.38;;;29.03;68.89
36798;BME280;22748;8.426;99.512;2022-09-02T03:14:47;100817.63;;;29.07;68.75
36798;BME280;22748;8.426;99.512;2022-09-02T03:17:17;100816.22;;;29.11;68.82
36798;BME280;22748;8.426;99.512;2022-09-02T03:19:48;100814.97;;;29.14;68.37
36798;BME280;22748;8.426;99.512;2022-09-02T03:22:19;100812.91;;;29.16;68.74
36798;BME280;22748;8.426;99.512;2022-09-02T03:24:53;100814.53;;;29.17;68.51
36798;BME280;22748;8.426;99.512;2022-09-02T03:27:23;100815.59;;;29.23;68.97
36798;BME280;22748;8.426;99.512;2022-09-02T03:29:55;100793.44;;;29.27;68.67
36798;BME280;22748;8.426;99.512;2022-09-02T03:32:29;100793.44;;;29.27;68.93
36798;BME280;22748;8.426;99.512;2022-09-02T03:35:02;100786.00;;;29.29;68.87
36798;BME280;22748;8.426;99.512;2022-09-02T03:37:36;100795.06;;;29.28;69.00
36798;BME280;22748;8.426;99.512;2022-09-02T03:40:11;100789.50;;;29.30;68.96
36798;BME280;22748;8.426;99.512;2022-09-02T03:42:44;100782.69;;;29.34;68.51
36798;BME280;22748;8.426;99.512;2022-09-02T03:45:14;100784.53;;;29.40;67.96
36798;BME280;22748;8.426;99.512;2022-09-02T03:47:45;100781.63;;;29.42;68.65
36798;BME280;22748;8.426;99.512;2022-09-02T03:50:22;100771.91;;;29.41;68.70
36798;BME280;22748;8.426;99.512;2022-09-02T03:52:55;100775.41;;;29.41;68.51
36798;BME280;22748;8.426;99.512;2022-09-02T03:55:27;100772.31;;;29.51;68.17
36798;BME280;22748;8.426;99.512;2022-09-02T03:57:59;100762.34;;;29.58;68.04
36798;BME280;22748;8.426;99.512;2022-09-02T04:00:30;100766.06;;;29.64;67.30
36798;BME280;22748;8.426;99.512;2022-09-02T04:03:03;100761.31;;;29.72;67.57
36798;BME280;22748;8.426;99.512;2022-09-02T04:05:35;100753.44;;;29.78;67.14
36798;BME280;22748;8.426;99.512;2022-09-02T04:08:09;100751.16;;;29.81;67.29
36798;BME280;22748;8.426;99.512;2022-09-02T04:10:43;100747.19;;;29.84;66.13
36798;BME280;22748;8.426;99.512;2022-09-02T04:13:13;100740.34;;;29.88;65.60
36798;BME280;22748;8.426;99.512;2022-09-02T04:15:45;100743.41;;;29.91;65.72
36798;BME280;22748;8.426;99.512;2022-09-02T04:18:16;100739.25;;;29.96;66.17
36798;BME280;22748;8.426;99.512;2022-09-02T04:20:48;100725.00;;;29.95;65.71
36798;BME280;22748;8.426;99.512;2022-09-02T04:23:18;100729.16;;;29.91;65.82
36798;BME280;22748;8.426;99.512;2022-09-02T04:25:53;100716.97;;;29.82;66.12
36798;BME280;22748;8.426;99.512;2022-09-02T04:28:24;100720.25;;;29.90;66.54
36798;BME280;22748;8.426;99.512;2022-09-02T04:30:57;100718.75;;;30.01;66.34
36798;BME280;22748;8.426;99.512;2022-09-02T04:33:28;100704.00;;;30.10;65.92
36798;BME280;22748;8.426;99.512;2022-09-02T04:35:58;100697.13;;;30.14;65.98
36798;BME280;22748;8.426;99.512;2022-09-02T04:38:28;100690.28;;;30.19;65.75
36798;BME280;22748;8.426;99.512;2022-09-02T04:41:03;100682.81;;;30.21;65.66
36798;BME280;22748;8.426;99.512;2022-09-02T04:43:37;100682.34;;;30.24;65.82
36798;BME280;22748;8.426;99.512;2022-09-02T04:46:09;100668.69;;;30.25;65.29
36798;BME280;22748;8.426;99.512;2022-09-02T04:48:39;100664.13;;;30.26;64.25
36798;BME280;22748;8.426;99.512;2022-09-02T04:51:11;100665.16;;;30.25;64.26
36798;BME280;22748;8.426;99.512;2022-09-02T04:53:47;100659.53;;;30.26;64.92
36798;BME280;22748;8.426;99.512;2022-09-02T04:56:21;100649.19;;;30.30;64.87
36798;BME280;22748;8.426;99.512;2022-09-02T04:58:54;100646.66;;;30.35;64.65
36798;BME280;22748;8.426;99.512;2022-09-02T05:01:28;100646.84;;;30.40;64.73
36798;BME280;22748;8.426;99.512;2022-09-02T05:03:58;100632.31;;;30.41;64.36
36798;BME280;22748;8.426;99.512;2022-09-02T05:06:34;100631.22;;;30.49;63.83
36798;BME280;22748;8.426;99.512;2022-09-02T05:09:06;100626.81;;;30.54;63.85
36798;BME280;22748;8.426;99.512;2022-09-02T05:11:38;100622.03;;;30.57;62.47
36798;BME280;22748;8.426;99.512;2022-09-02T05:14:09;100616.78;;;30.62;62.82
36798;BME280;22748;8.426;99.512;2022-09-02T05:16:40;100617.19;;;30.65;62.88
36798;BME280;22748;8.426;99.512;2022-09-02T05:19:12;100611.59;;;30.67;62.65
36798;BME280;22748;8.426;99.512;2022-09-02T05:21:44;100616.16;;;30.66;63.01
36798;BME280;22748;8.426;99.512;2022-09-02T05:24:17;100617.19;;;30.65;62.80
36798;BME280;22748;8.426;99.512;2022-09-02T05:26:51;100613.66;;;30.65;62.88
36798;BME280;22748;8.426;99.512;2022-09-02T05:29:24;100608.50;;;30.63;62.90
36798;BME280;22748;8.426;99.512;2022-09-02T05:31:56;100607.69;;;30.63;63.57
36798;BME280;22748;8.426;99.512;2022-09-02T05:34:26;100607.69;;;30.63;63.30
36798;BME280;22748;8.426;99.512;2022-09-02T05:36:59;100613.66;;;30.65;63.62
36798;BME280;22748;8.426;99.512;2022-09-02T05:39:29;100604.72;;;30.71;63.25
36798;BME280;22748;8.426;99.512;2022-09-02T05:42:02;100608.00;;;30.73;63.50
36798;BME280;22748;8.426;99.512;2022-09-02T05:44:35;100604.72;;;30.71;63.03
36798;BME280;22748;8.426;99.512;2022-09-02T05:47:07;100602.63;;;30.73;63.23
36798;BME280;22748;8.426;99.512;2022-09-02T05:49:39;100603.81;;;30.77;63.83
36798;BME280;22748;8.426;99.512;2022-09-02T05:52:09;100597.50;;;30.83;63.74
36798;BME280;22748;8.426;99.512;2022-09-02T05:54:44;100590.91;;;30.86;63.66
36798;BME280;22748;8.426;99.512;2022-09-02T05:57:17;100584.16;;;30.95;63.09
36798;BME280;22748;8.426;99.512;2022-09-02T05:59:50;100583.28;;;31.01;62.05
36798;BME280;22748;8.426;99.512;2022-09-02T06:02:24;100587.38;;;31.04;61.51
36798;BME280;22748;8.426;99.512;2022-09-02T06:04:57;100586.31;;;31.05;60.82
36798;BME280;22748;8.426;99.512;2022-09-02T06:07:29;100585.44;;;31.11;61.07
36798;BME280;22748;8.426;99.512;2022-09-02T06:10:00;100568.78;;;31.14;60.85
36798;BME280;22748;8.426;99.512;2022-09-02T06:12:36;100572.94;;;31.16;60.57
36798;BME280;22748;8.426;99.512;2022-09-02T06:15:09;100570.56;;;31.20;60.70
36798;BME280;22748;8.426;99.512;2022-09-02T06:17:43;100556.28;;;31.20;60.27
36798;BME280;22748;8.426;99.512;2022-09-02T06:20:18;100561.44;;;31.21;60.74
36798;BME280;22748;8.426;99.512;2022-09-02T06:22:49;100555.16;;;31.27;60.11
36798;BME280;22748;8.426;99.512;2022-09-02T06:25:23;100548.81;;;31.33;60.75
36798;BME280;22748;8.426;99.512;2022-09-02T06:27:56;100544.88;;;31.36;60.38
36798;BME280;22748;8.426;99.512;2022-09-02T06:30:29;100537.13;;;31.40;60.49
36798;BME280;22748;8.426;99.512;2022-09-02T06:32:59;100528.81;;;31.41;60.07
36798;BME280;22748;8.426;99.512;2022-09-02T06:35:30;100517.56;;;31.44;58.96
36798;BME280;22748;8.426;99.512;2022-09-02T06:38:05;100522.75;;;31.46;58.23
36798;BME280;22748;8.426;99.512;2022-09-02T06:40:47;100517.94;;;31.48;57.46
36798;BME280;22748;8.426;99.512;2022-09-02T06:43:20;100505.66;;;31.52;57.17
36798;BME280;22748;8.426;99.512;2022-09-02T06:45:49;100502.47;;;31.55;57.52
36798;BME280;22748;8.426;99.512;2022-09-02T06:48:19;100490.75;;;31.61;57.12
36798;BME280;22748;8.426;99.512;2022-09-02T06:50:51;100490.31;;;31.64;57.76
36798;BME280;22748;8.426;99.512;2022-09-02T06:53:21;100482.81;;;31.66;57.37
36798;BME280;22748;8.426;99.512;2022-09-02T06:55:52;100476.47;;;31.72;57.22
36798;BME280;22748;8.426;99.512;2022-09-02T06:58:23;100476.34;;;31.79;56.99
36798;BME280;22748;8.426;99.512;2022-09-02T07:00:52;100469.69;;;31.82;56.26
36798;BME280;22748;8.426;99.512;2022-09-02T07:03:22;100468.41;;;31.84;56.31
36798;BME280;22748;8.426;99.512;2022-09-02T07:06:06;100463.81;;;31.85;56.59
36798;BME280;22748;8.426;99.512;2022-09-02T07:08:37;100450.69;;;31.88;56.63
36798;BME280;22748;8.426;99.512;2022-09-02T07:11:15;100442.69;;;31.93;57.00
36798;BME280;22748;8.426;99.512;2022-09-02T07:13:52;100442.00;;;31.98;56.12
36798;BME280;22748;8.426;99.512;2022-09-02T07:16:21;100443.78;;;32.04;56.51
36798;BME280;22748;8.426;99.512;2022-09-02T07:18:51;100436.25;;;32.06;56.57
36798;BME280;22748;8.426;99.512;2022-09-02T07:21:21;100435.19;;;32.07;56.59
36798;BME280;22748;8.426;99.512;2022-09-02T07:23:51;100433.19;;;32.03;56.67
36798;BME280;22748;8.426;99.512;2022-09-02T07:26:21;100429.09;;;32.00;57.28
36798;BME280;22748;8.426;99.512;2022-09-02T07:28:53;100429.69;;;32.02;57.07
36798;BME280;22748;8.426;99.512;2022-09-02T07:31:23;100421.09;;;32.05;57.05
36798;BME280;22748;8.426;99.512;2022-09-02T07:33:55;100416.03;;;32.09;56.89
36798;BME280;22748;8.426;99.512;2022-09-02T07:36:26;100429.91;;;32.12;57.50
36798;BME280;22748;8.426;99.512;2022-09-02T07:38:56;100429.91;;;32.12;57.71
36798;BME280;22748;8.426;99.512;2022-09-02T07:41:26;100429.78;;;32.07;57.58
36798;BME280;22748;8.426;99.512;2022-09-02T07:43:58;100430.75;;;32.01;57.22
36798;BME280;22748;8.426;99.512;2022-09-02T07:46:29;100425.19;;;31.96;57.74
36798;BME280;22748;8.426;99.512;2022-09-02T07:49:00;100425.41;;;31.94;57.75
36798;BME280;22748;8.426;99.512;2022-09-02T07:51:31;100419.19;;;31.94;57.59
36798;BME280;22748;8.426;99.512;2022-09-02T07:54:03;100420.59;;;31.85;57.68
36798;BME280;22748;8.426;99.512;2022-09-02T07:56:33;100426.47;;;31.82;57.38
36798;BME280;22748;8.426;99.512;2022-09-02T07:59:06;100425.63;;;31.81;57.05
36798;BME280;22748;8.426;99.512;2022-09-02T08:01:38;100418.38;;;31.82;57.07
36798;BME280;22748;8.426;99.512;2022-09-02T08:04:10;100402.63;;;31.78;57.13
36798;BME280;22748;8.426;99.512;2022-09-02T08:06:40;100400.41;;;31.75;56.98
36798;BME280;22748;8.426;99.512;2022-09-02T08:09:10;100395.81;;;31.76;56.96
36798;BME280;22748;8.426;99.512;2022-09-02T08:11:41;100389.13;;;31.78;56.90
36798;BME280;22748;8.426;99.512;2022-09-02T08:14:17;100380.00;;;31.80;57.80
36798;BME280;22748;8.426;99.512;2022-09-02T08:16:51;100383.28;;;31.82;57.56
36798;BME280;22748;8.426;99.512;2022-09-02T08:19:23;100382.22;;;31.83;57.74
36798;BME280;22748;8.426;99.512;2022-09-02T08:22:02;100386.56;;;31.84;57.63
36798;BME280;22748;8.426;99.512;2022-09-02T08:24:33;100386.31;;;31.85;57.19
36798;BME280;22748;8.426;99.512;2022-09-02T08:27:04;100386.09;;;31.87;57.21
36798;BME280;22748;8.426;99.512;2022-09-02T08:29:38;100388.31;;;31.90;57.84
36798;BME280;22748;8.426;99.512;2022-09-02T08:32:08;100388.06;;;31.91;57.27
36798;BME280;22748;8.426;99.512;2022-09-02T08:34:39;100395.13;;;31.92;57.63
36798;BME280;22748;8.426;99.512;2022-09-02T08:37:09;100390.78;;;31.91;57.42
36798;BME280;22748;8.426;99.512;2022-09-02T08:39:41;100388.88;;;31.92;56.44
36798;BME280;22748;8.426;99.512;2022-09-02T08:42:18;100388.44;;;31.95;56.90
36798;BME280;22748;8.426;99.512;2022-09-02T08:44:53;100385.75;;;31.95;56.43
36798;BME280;22748;8.426;99.512;2022-09-02T08:47:29;100383.84;;;31.95;56.59
36798;BME280;22748;8.426;99.512;2022-09-02T08:50:08;100376.38;;;31.97;56.29
36798;BME280;22748;8.426;99.512;2022-09-02T08:52:45;100376.38;;;31.97;56.56
36798;BME280;22748;8.426;99.512;2022-09-02T08:55:20;100370.13;;;31.97;56.31
36798;BME280;22748;8.426;99.512;2022-09-02T08:57:53;100370.75;;;31.99;55.68
36798;BME280;22748;8.426;99.512;2022-09-02T09:00:34;100368.38;;;32.03;55.65
36798;BME280;22748;8.426;99.512;2022-09-02T09:03:18;100360.63;;;32.06;55.32
36798;BME280;22748;8.426;99.512;2022-09-02T09:05:51;100360.38;;;32.08;55.57
36798;BME280;22748;8.426;99.512;2022-09-02T09:08:32;100356.25;;;32.05;55.94
36798;BME280;22748;8.426;99.512;2022-09-02T09:11:15;100354.16;;;32.07;55.79
36798;BME280;22748;8.426;99.512;2022-09-02T09:13:59;100355.31;;;32.11;56.12
36798;BME280;22748;8.426;99.512;2022-09-02T09:16:40;100354.84;;;32.14;56.23
36798;BME280;22748;8.426;99.512;2022-09-02T09:19:15;100355.66;;;32.15;56.21
36798;BME280;22748;8.426;99.512;2022-09-02T09:21:47;100351.66;;;32.17;56.59
36798;BME280;22748;8.426;99.512;2022-09-02T09:24:24;100348.97;;;32.17;56.52
36798;BME280;22748;8.426;99.512;2022-09-02T09:26:55;100347.91;;;32.18;56.62
36798;BME280;22748;8.426;99.512;2022-09-02T09:29:32;100343.06;;;32.21;56.72
36798;BME280;22748;8.426;99.512;2022-09-02T09:32:14;100340.50;;;32.26;56.00
36798;BME280;22748;8.426;99.512;2022-09-02T09:34:59;100342.97;;;32.27;56.48
36798;BME280;22748;8.426;99.512;2022-09-02T09:37:36;100338.69;;;32.31;56.51
36798;BME280;22748;8.426;99.512;2022-09-02T09:40:22;100341.75;;;32.35;56.29
36798;BME280;22748;8.426;99.512;2022-09-02T09:42:55;100327.28;;;32.41;56.61
36798;BME280;22748;8.426;99.512;2022-09-02T09:45:30;100328.44;;;32.45;56.58
36798;BME280;22748;8.426;99.512;2022-09-02T09:48:18;100336.56;;;32.45;56.26
36798;BME280;22748;8.426;99.512;2022-09-02T09:51:10;100357.09;;;32.46;56.67
36798;BME280;22748;8.426;99.512;2022-09-02T09:53:40;100357.69;;;32.48;56.69
36798;BME280;22748;8.426;99.512;2022-09-02T09:56:32;100355.00;;;32.48;56.95
36798;BME280;22748;8.426;99.512;2022-09-02T09:59:08;100339.59;;;32.49;57.00
36798;BME280;22748;8.426;99.512;2022-09-02T10:01:57;100336.66;;;32.50;56.94
36798;BME280;22748;8.426;99.512;2022-09-02T10:04:31;100347.47;;;32.50;57.25
36798;BME280;22748;8.426;99.512;2022-09-02T10:07:01;100345.84;;;32.49;57.35
36798;BME280;22748;8.426;99.512;2022-09-02T10:09:33;100345.25;;;32.47;57.67
36798;BME280;22748;8.426;99.512;2022-09-02T10:12:05;100347.13;;;32.47;57.24
36798;BME280;22748;8.426;99.512;2022-09-02T10:14:40;100350.06;;;32.45;57.48
36798;BME280;22748;8.426;99.512;2022-09-02T10:17:29;100355.47;;;32.45;57.10
36798;BME280;22748;8.426;99.512;2022-09-02T10:20:09;100361.34;;;32.42;57.66
36798;BME280;22748;8.426;99.512;2022-09-02T10:22:51;100358.66;;;32.42;57.66
36798;BME280;22748;8.426;99.512;2022-09-02T10:25:32;100369.72;;;32.41;58.14
36798;BME280;22748;8.426;99.512;2022-09-02T10:28:14;100375.13;;;32.41;58.10
36798;BME280;22748;8.426;99.512;2022-09-02T10:30:54;100373.22;;;32.41;58.22
36798;BME280;22748;8.426;99.512;2022-09-02T10:33:35;100367.00;;;32.41;58.18
36798;BME280;22748;8.426;99.512;2022-09-02T10:36:17;100372.41;;;32.41;58.15
36798;BME280;22748;8.426;99.512;2022-09-02T10:38:59;100375.44;;;32.44;58.09
36798;BME280;22748;8.426;99.512;2022-09-02T10:41:39;100381.81;;;32.38;58.55
36798;BME280;22748;8.426;99.512;2022-09-02T10:44:26;100372.56;;;32.34;58.72
36798;BME280;22748;8.426;99.512;2022-09-02T10:47:00;100380.41;;;32.35;58.64
36798;BME280;22748;8.426;99.512;2022-09-02T10:49:53;100369.28;;;32.32;58.45
36798;BME280;22748;8.426;99.512;2022-09-02T10:52:42;100373.50;;;32.28;58.87
36798;BME280;22748;8.426;99.512;2022-09-02T10:55:24;100382.06;;;32.25;59.31
36798;BME280;22748;8.426;99.512;2022-09-02T10:58:08;100379.84;;;32.22;60.34
36798;BME280;22748;8.426;99.512;2022-09-02T11:00:41;100385.50;;;32.20;60.63
36798;BME280;22748;8.426;99.512;2022-09-02T11:03:18;100386.78;;;32.17;61.05
36798;BME280;22748;8.426;99.512;2022-09-02T11:05:51;100387.59;;;32.18;61.64
36798;BME280;22748;8.426;99.512;2022-09-02T11:08:34;100386.78;;;32.17;61.59
36798;BME280;22748;8.426;99.512;2022-09-02T11:11:10;100398.41;;;32.18;62.24
36798;BME280;22748;8.426;99.512;2022-09-02T11:13:57;100407.81;;;32.15;62.33
36798;BME280;22748;8.426;99.512;2022-09-02T11:16:32;100421.56;;;32.14;62.09
36798;BME280;22748;8.426;99.512;2022-09-02T11:19:11;100425.56;;;32.11;61.99
36798;BME280;22748;8.426;99.512;2022-09-02T11:21:53;100434.16;;;32.08;61.87
36798;BME280;22748;8.426;99.512;2022-09-02T11:24:32;100437.88;;;32.07;62.63
36798;BME280;22748;8.426;99.512;2022-09-02T11:27:11;100448.09;;;32.05;62.78
36798;BME280;22748;8.426;99.512;2022-09-02T11:29:56;100451.88;;;32.04;62.52
36798;BME280;22748;8.426;99.512;2022-09-02T11:32:36;100445.66;;;32.04;62.36
36798;BME280;22748;8.426;99.512;2022-09-02T11:35:15;100443.19;;;32.02;62.53
36798;BME280;22748;8.426;99.512;2022-09-02T11:37:51;100446.69;;;32.03;62.70
36798;BME280;22748;8.426;99.512;2022-09-02T11:40:27;100448.59;;;32.02;62.90
36798;BME280;22748;8.426;99.512;2022-09-02T11:43:11;100468.56;;;32.01;62.96
36798;BME280;22748;8.426;99.512;2022-09-02T11:46:18;100479.59;;;32.00;63.21
36798;BME280;22748;8.426;99.512;2022-09-02T11:52:05;100481.22;;;32.01;63.46
36798;BME280;22748;8.426;99.512;2022-09-02T11:54:40;100493.91;;;32.00;63.88
36798;BME280;22748;8.426;99.512;2022-09-02T11:57:14;100497.06;;;31.97;64.31
36798;BME280;22748;8.426;99.512;2022-09-02T12:00:03;100500.81;;;31.96;64.28
36798;BME280;22748;8.426;99.512;2022-09-02T12:02:38;100502.47;;;31.97;63.93
36798;BME280;22748;8.426;99.512;2022-09-02T12:08:13;100498.59;;;31.93;64.19
36798;BME280;22748;8.426;99.512;2022-09-02T12:11:04;100496.09;;;31.91;63.88
36798;BME280;22748;8.426;99.512;2022-09-02T12:13:40;100513.59;;;31.89;63.58
36798;BME280;22748;8.426;99.512;2022-09-02T12:16:35;100520.53;;;31.85;63.22
36798;BME280;22748;8.426;99.512;2022-09-02T12:19:27;100529.69;;;31.84;63.17
36798;BME280;22748;8.426;99.512;2022-09-02T12:25:02;100546.13;;;31.82;62.95
36798;BME280;22748;8.426;99.512;2022-09-02T12:27:35;100543.41;;;31.82;62.83
36798;BME280;22748;8.426;99.512;2022-09-02T12:30:11;100550.69;;;31.82;62.76
36798;BME280;22748;8.426;99.512;2022-09-02T12:35:56;100555.84;;;31.83;63.24
36798;BME280;22748;8.426;99.512;2022-09-02T12:38:29;100563.72;;;31.85;62.78
36798;BME280;22748;8.426;99.512;2022-09-02T12:44:23;100575.59;;;31.84;62.73
36798;BME280;22748;8.426;99.512;2022-09-02T12:47:04;100586.41;;;31.84;62.29
36798;BME280;22748;8.426;99.512;2022-09-02T12:49:47;100597.66;;;31.81;62.40
36798;BME280;22748;8.426;99.512;2022-09-02T12:52:43;100598.94;;;31.78;62.01
36798;BME280;22748;8.426;99.512;2022-09-02T12:55:20;100604.34;;;31.78;62.06
36798;BME280;22748;8.426;99.512;2022-09-02T12:58:06;100607.25;;;31.76;61.72
36798;BME280;22748;8.426;99.512;2022-09-02T13:00:52;100618.53;;;31.73;61.64
36798;BME280;22748;8.426;99.512;2022-09-02T13:06:45;100616.84;;;31.72;61.68
36798;BME280;22748;8.426;99.512;2022-09-02T13:09:46;100615.22;;;31.71;61.77
36798;BME280;22748;8.426;99.512;2022-09-02T13:15:33;100644.31;;;31.69;61.78
36798;BME280;22748;8.426;99.512;2022-09-02T13:30:02;100672.97;;;31.70;61.90
36798;BME280;22748;8.426;99.512;2022-09-02T13:32:36;100675.22;;;31.73;61.64
36798;BME280;22748;8.426;99.512;2022-09-02T13:35:18;100680.03;;;31.71;61.82
36798;BME280;22748;8.426;99.512;2022-09-02T13:37:55;100679.22;;;31.71;61.75
36798;BME280;22748;8.426;99.512;2022-09-02T13:40:31;100683.75;;;31.70;61.44
36798;BME280;22748;8.426;99.512;2022-09-02T13:43:17;100682.13;;;31.69;61.69
36798;BME280;22748;8.426;99.512;2022-09-02T13:45:50;100684.81;;;31.69;61.78
36798;BME280;22748;8.426;99.512;2022-09-02T13:48:27;100692.09;;;31.69;61.62
36798;BME280;22748;8.426;99.512;2022-09-02T13:51:07;100695.03;;;31.67;62.04
36798;BME280;22748;8.426;99.512;2022-09-02T13:53:42;100695.84;;;31.68;62.07
36798;BME280;22748;8.426;99.512;2022-09-02T13:56:23;100700.44;;;31.67;61.85
36798;BME280;22748;8.426;99.512;2022-09-02T13:58:59;100703.13;;;31.67;61.85
36798;BME280;22748;8.426;99.512;2022-09-02T14:01:34;100705.00;;;31.67;62.30
36798;BME280;22748;8.426;99.512;2022-09-02T14:04:10;100707.09;;;31.65;62.01
36798;BME280;22748;8.426;99.512;2022-09-02T14:06:44;100716.03;;;31.65;62.40